createdAt,value
2019-04-14T00:00:49.485Z,12.30
2019-04-14T00:03:34.746Z,11.97
2019-04-14T00:06:06.859Z,13.00
2019-04-14T00:08:37.213Z,12.23
2019-04-14T00:11:06.157Z,13.68
2019-04-14T00:13:34.988Z,11.70
2019-04-14T00:16:03.553Z,13.38
2019-04-14T00:18:32.228Z,13.40
2019-04-14T00:21:00.540Z,12.78
2019-04-14T00:23:30.365Z,12.30
2019-04-14T00:26:31.632Z,12.33
2019-04-14T00:29:00.277Z,11.80
2019-04-14T00:31:30.926Z,13.20
2019-04-14T00:34:09.298Z,12.63
2019-04-14T00:36:43.758Z,11.68
2019-04-14T00:39:20.484Z,10.35
2019-04-14T00:41:54.962Z,11.22
2019-04-14T00:44:41.056Z,10.63
2019-04-14T00:47:17.980Z,9.98
2019-04-14T00:49:46.628Z,10.38
2019-04-14T00:52:15.361Z,10.32
2019-04-14T00:54:43.993Z,10.30
2019-04-14T00:57:13.680Z,10.28
2019-04-14T00:59:42.202Z,11.10
2019-04-14T01:02:10.898Z,10.88
2019-04-14T01:04:40.413Z,11.53
2019-04-14T01:07:09.158Z,11.68
2019-04-14T01:09:37.745Z,10.88
2019-04-14T01:12:06.449Z,11.00
2019-04-14T01:14:35.120Z,11.48
2019-04-14T01:17:04.786Z,11.08
2019-04-14T01:19:33.352Z,10.65
2019-04-14T01:22:03.110Z,11.90
2019-04-14T01:24:31.893Z,10.60
2019-04-14T01:27:00.213Z,11.93
2019-04-14T01:29:29.752Z,11.95
2019-04-14T01:31:58.393Z,10.90
2019-04-14T01:34:28.098Z,12.43
2019-04-14T01:36:56.649Z,11.45
2019-04-14T01:39:26.414Z,11.45
2019-04-14T01:41:56.322Z,11.30
2019-04-14T01:44:26.322Z,8.80
2019-04-14T01:46:55.014Z,12.10
2019-04-14T01:49:24.720Z,12.58
2019-04-14T01:52:12.407Z,13.22
2019-04-14T01:54:45.734Z,12.60
2019-04-14T01:57:16.121Z,12.18
2019-04-14T02:00:07.537Z,11.85
2019-04-14T02:02:36.341Z,11.68
2019-04-14T02:05:05.966Z,11.75
2019-04-14T02:07:34.528Z,12.98
2019-04-14T02:10:03.975Z,12.28
2019-04-14T02:12:32.640Z,12.88
2019-04-14T02:15:02.867Z,12.93
2019-04-14T02:17:32.720Z,13.00
2019-04-14T02:20:03.337Z,12.47
2019-04-14T02:22:33.354Z,12.80
2019-04-14T02:25:21.241Z,12.90
2019-04-14T02:27:49.869Z,12.93
2019-04-14T02:30:23.039Z,12.23
2019-04-14T02:33:17.209Z,12.43
2019-04-14T02:35:47.128Z,8.98
2019-04-14T02:38:31.060Z,12.28
2019-04-14T02:41:07.374Z,12.85
2019-04-14T02:43:23.687Z,13.45
2019-04-14T02:45:50.113Z,13.13
2019-04-14T02:48:31.794Z,13.38
2019-04-14T02:50:48.219Z,13.08
2019-04-14T02:55:49.136Z,12.30
2019-04-14T02:58:20.342Z,10.82
2019-04-14T03:00:48.707Z,12.98
2019-04-14T03:03:25.722Z,13.50
2019-04-14T03:05:53.238Z,11.60
2019-04-14T03:10:47.521Z,10.45
2019-04-14T03:16:15.245Z,14.43
2019-04-14T03:21:14.759Z,13.85
2019-04-14T03:23:40.604Z,13.85
2019-04-14T03:26:15.338Z,13.48
2019-04-14T03:29:13.151Z,13.50
2019-04-14T03:31:52.684Z,13.68
2019-04-14T03:34:12.977Z,12.98
2019-04-14T03:36:58.289Z,11.30
2019-04-14T03:38:59.943Z,13.72
2019-04-14T03:43:46.356Z,13.25
2019-04-14T03:48:57.971Z,14.98
2019-04-14T03:51:36.986Z,15.00
2019-04-14T03:53:53.164Z,14.83
2019-04-14T03:56:07.719Z,11.05
2019-04-14T03:58:34.260Z,12.95
2019-04-14T04:01:02.563Z,13.32
2019-04-14T04:03:32.407Z,13.65
2019-04-14T04:06:01.151Z,12.73
2019-04-14T04:08:29.465Z,13.68
2019-04-14T04:10:59.985Z,14.85
2019-04-14T04:13:28.456Z,13.38
2019-04-14T04:15:58.756Z,13.65
2019-04-14T04:18:28.804Z,11.55
2019-04-14T04:21:05.263Z,11.28
2019-04-14T04:23:42.449Z,14.60
2019-04-14T04:26:12.844Z,14.68
2019-04-14T04:28:49.676Z,14.85
2019-04-14T04:31:20.099Z,13.75
2019-04-14T04:34:09.555Z,15.00
2019-04-14T04:36:59.489Z,15.03
2019-04-14T04:39:30.176Z,14.98
2019-04-14T04:41:59.034Z,15.15
2019-04-14T04:44:27.733Z,14.58
2019-04-14T04:46:56.964Z,15.80
2019-04-14T04:49:27.665Z,14.38
2019-04-14T04:51:55.850Z,14.85
2019-04-14T04:54:25.640Z,15.32
2019-04-14T04:56:54.437Z,14.90
2019-04-14T04:59:23.489Z,14.98
2019-04-14T05:01:52.212Z,14.35
2019-04-14T05:04:20.544Z,15.30
2019-04-14T05:06:57.417Z,15.65
2019-04-14T05:09:38.857Z,14.87
2019-04-14T05:12:15.720Z,14.70
2019-04-14T05:15:01.392Z,15.70
2019-04-14T05:17:34.377Z,13.45
2019-04-14T05:20:03.272Z,14.95
2019-04-14T05:22:33.165Z,15.63
2019-04-14T05:25:01.974Z,12.43
2019-04-14T05:27:30.354Z,15.50
2019-04-14T05:29:58.934Z,15.40
2019-04-14T05:32:28.364Z,16.05
2019-04-14T05:34:57.141Z,16.45
2019-04-14T05:37:26.788Z,15.25
2019-04-14T05:39:55.304Z,15.03
2019-04-14T05:42:25.643Z,16.85
2019-04-14T05:44:53.909Z,16.57
2019-04-14T05:47:22.290Z,16.17
2019-04-14T05:49:53.438Z,15.98
2019-04-14T05:52:21.217Z,17.15
2019-04-14T05:54:49.917Z,15.88
2019-04-14T05:57:19.773Z,17.17
2019-04-14T05:59:48.488Z,18.25
2019-04-14T06:02:17.727Z,17.15
2019-04-14T06:04:46.678Z,17.82
2019-04-14T06:07:14.993Z,18.02
2019-04-14T06:09:43.642Z,17.85
2019-04-14T06:12:12.337Z,18.67
2019-04-14T06:14:40.633Z,18.90
2019-04-14T06:17:09.277Z,18.50
2019-04-14T06:19:40.629Z,19.50
2019-04-14T06:22:08.402Z,20.30
2019-04-14T06:24:37.144Z,20.27
2019-04-14T06:27:05.760Z,21.73
2019-04-14T06:29:34.464Z,22.73
2019-04-14T06:32:05.597Z,23.70
2019-04-14T06:34:36.762Z,22.75
2019-04-14T06:37:15.672Z,23.07
2019-04-14T06:39:46.828Z,22.30
2019-04-14T06:42:15.132Z,22.42
2019-04-14T06:44:44.609Z,24.10
2019-04-14T06:47:13.265Z,23.77
2019-04-14T06:49:48.736Z,23.95
2019-04-14T06:52:12.343Z,22.55
2019-04-14T06:54:40.970Z,22.87
2019-04-14T06:57:09.656Z,24.75
2019-04-14T06:59:38.359Z,23.12
2019-04-14T07:02:08.651Z,23.20
2019-04-14T07:04:37.364Z,23.52
2019-04-14T07:07:06.038Z,23.50
2019-04-14T07:09:34.896Z,24.12
2019-04-14T07:12:03.441Z,23.65
2019-04-14T07:14:32.205Z,22.15
2019-04-14T07:17:00.820Z,23.67
2019-04-14T07:19:29.510Z,23.98
2019-04-14T07:21:58.156Z,24.18
2019-04-14T07:24:26.567Z,23.07
2019-04-14T07:26:55.119Z,22.62
2019-04-14T07:29:25.132Z,24.55
2019-04-14T07:34:36.369Z,23.18
2019-04-14T07:37:06.507Z,24.33
2019-04-14T07:39:45.404Z,16.90
2019-04-14T07:42:21.093Z,21.95
2019-04-14T07:44:53.929Z,23.38
2019-04-14T07:47:24.361Z,22.00
2019-04-14T07:49:54.653Z,22.52
2019-04-14T07:52:33.675Z,20.77
2019-04-14T07:55:06.493Z,19.25
2019-04-14T07:57:53.274Z,20.52
2019-04-14T08:00:23.394Z,22.02
2019-04-14T08:02:53.360Z,19.52
2019-04-14T08:05:23.645Z,21.48
2019-04-14T08:07:52.405Z,20.25
2019-04-14T08:10:20.997Z,21.02
2019-04-14T08:12:49.375Z,18.77
2019-04-14T08:15:17.976Z,17.30
2019-04-14T08:17:46.284Z,18.40
2019-04-14T08:20:26.777Z,17.05
2019-04-14T08:22:45.257Z,16.07
2019-04-14T08:25:13.592Z,16.37
2019-04-14T08:27:42.231Z,17.37
2019-04-14T08:30:10.540Z,17.62
2019-04-14T08:32:39.176Z,16.75
2019-04-14T08:35:07.480Z,19.23
2019-04-14T08:37:35.799Z,20.00
2019-04-14T08:40:04.657Z,19.70
2019-04-14T08:42:40.846Z,20.65
2019-04-14T08:45:10.885Z,21.45
2019-04-14T08:47:51.958Z,21.63
2019-04-14T08:53:09.709Z,22.60
2019-04-14T08:55:45.916Z,24.03
2019-04-14T08:58:16.138Z,22.37
2019-04-14T09:00:58.436Z,22.70
2019-04-14T09:03:46.713Z,22.73
2019-04-14T09:06:16.980Z,23.00
2019-04-14T09:09:02.381Z,22.37
2019-04-14T09:11:44.584Z,19.60
2019-04-14T09:14:32.414Z,20.90
2019-04-14T09:17:00.932Z,21.60
2019-04-14T09:19:29.623Z,21.25
2019-04-14T09:21:58.255Z,19.65
2019-04-14T09:24:26.994Z,20.37
2019-04-14T09:26:55.681Z,21.55
2019-04-14T09:29:24.351Z,21.07
2019-04-14T09:31:53.002Z,21.10
2019-04-14T09:34:21.688Z,22.10
2019-04-14T09:36:50.377Z,21.15
2019-04-14T09:39:19.037Z,21.48
2019-04-14T09:41:47.752Z,23.27
2019-04-14T09:44:16.408Z,22.82
2019-04-14T09:46:45.119Z,24.15
2019-04-14T09:49:13.792Z,23.70
2019-04-14T09:51:42.561Z,23.27
2019-04-14T09:54:11.156Z,24.37
2019-04-14T09:56:39.485Z,24.23
2019-04-14T09:59:08.117Z,22.87
2019-04-14T10:01:36.809Z,24.57
2019-04-14T10:04:05.543Z,23.98
2019-04-14T10:06:34.189Z,24.10
2019-04-14T10:09:03.525Z,23.40
2019-04-14T10:11:31.966Z,22.42
2019-04-14T10:14:00.646Z,22.17
2019-04-14T10:16:29.006Z,21.82
2019-04-14T10:18:57.673Z,20.60
2019-04-14T10:21:26.345Z,21.55
2019-04-14T10:23:54.972Z,21.93
2019-04-14T10:26:23.309Z,24.70
2019-04-14T10:28:52.027Z,23.18
2019-04-14T10:31:20.337Z,23.70
2019-04-14T10:33:48.895Z,25.60
2019-04-14T10:36:17.262Z,24.47
2019-04-14T10:38:45.916Z,25.20
2019-04-14T10:41:14.557Z,25.82
2019-04-14T10:43:42.902Z,24.82
2019-04-14T10:46:11.511Z,22.62
2019-04-14T10:48:40.305Z,23.22
2019-04-14T10:51:09.025Z,23.92
2019-04-14T10:53:37.680Z,23.42
2019-04-14T10:56:06.356Z,25.35
2019-04-14T10:58:35.225Z,24.37
2019-04-14T11:01:03.881Z,25.00
2019-04-14T11:03:32.431Z,22.87
2019-04-14T11:06:05.714Z,22.98
2019-04-14T11:08:34.324Z,21.93
2019-04-14T11:11:02.973Z,25.48
2019-04-14T11:13:32.080Z,23.47
2019-04-14T11:16:00.453Z,24.50
2019-04-14T11:18:29.081Z,26.57
2019-04-14T11:20:57.705Z,28.67
2019-04-14T11:23:26.456Z,28.32
2019-04-14T11:25:55.159Z,30.48
2019-04-14T11:28:23.810Z,26.70
2019-04-14T11:30:52.533Z,29.45
2019-04-14T11:33:22.813Z,29.15
2019-04-14T11:35:53.223Z,28.57
2019-04-14T11:38:23.609Z,27.37
2019-04-14T11:40:53.765Z,25.65
2019-04-14T11:43:22.430Z,27.00
2019-04-14T11:45:51.212Z,26.60
2019-04-14T11:48:19.827Z,25.37
2019-04-14T11:50:48.524Z,25.82
2019-04-14T11:53:17.190Z,24.02
2019-04-14T11:55:45.881Z,22.98
2019-04-14T11:58:14.677Z,23.73
2019-04-14T12:01:01.949Z,23.75
2019-04-14T12:03:48.512Z,23.55
2019-04-14T12:06:27.472Z,23.57
2019-04-14T12:09:00.590Z,24.37
2019-04-14T12:11:29.265Z,24.92
2019-04-14T12:13:57.869Z,24.72
2019-04-14T12:16:26.236Z,24.02
2019-04-14T12:18:54.833Z,25.52
2019-04-14T12:21:23.149Z,24.37
2019-04-14T12:23:51.868Z,23.38
2019-04-14T12:26:20.493Z,23.60
2019-04-14T12:28:49.357Z,24.55
2019-04-14T12:31:18.045Z,24.87
2019-04-14T12:33:46.545Z,23.67
2019-04-14T12:36:15.000Z,23.32
2019-04-14T12:38:43.490Z,22.13
2019-04-14T12:41:13.454Z,22.10
2019-04-14T12:43:43.801Z,24.47
2019-04-14T12:46:30.421Z,21.95
2019-04-14T12:49:15.544Z,21.80
2019-04-14T12:51:54.981Z,21.70
2019-04-14T12:54:24.410Z,23.32
2019-04-14T12:56:53.222Z,23.35
2019-04-14T12:59:23.619Z,21.75
2019-04-14T13:02:05.884Z,20.88
2019-04-14T13:04:34.193Z,20.57
2019-04-14T13:07:02.696Z,21.15
2019-04-14T13:09:31.484Z,21.48
2019-04-14T13:12:00.091Z,22.42
2019-04-14T13:14:28.693Z,20.57
2019-04-14T13:16:57.480Z,19.87
2019-04-14T13:19:26.069Z,20.52
2019-04-14T13:21:54.760Z,21.37
2019-04-14T13:24:23.434Z,22.35
2019-04-14T13:26:52.137Z,23.12
2019-04-14T13:29:20.840Z,21.10
2019-04-14T13:31:49.487Z,20.23
2019-04-14T13:34:18.197Z,20.95
2019-04-14T13:36:46.847Z,19.65
2019-04-14T13:39:15.560Z,20.37
2019-04-14T13:41:44.279Z,20.90
2019-04-14T13:44:13.009Z,21.52
2019-04-14T13:46:41.692Z,20.72
2019-04-14T13:49:10.300Z,20.85
2019-04-14T13:51:38.972Z,22.65
2019-04-14T13:54:07.680Z,21.57
2019-04-14T13:56:36.473Z,21.37
2019-04-14T13:59:05.059Z,21.10
2019-04-14T14:01:33.708Z,21.75
2019-04-14T14:04:02.409Z,22.42
2019-04-14T14:06:31.075Z,24.80
2019-04-14T14:08:59.800Z,26.23
2019-04-14T14:11:36.149Z,26.05
2019-04-14T14:14:06.169Z,27.67
2019-04-14T14:16:45.545Z,29.50
2019-04-14T14:19:15.836Z,28.77
2019-04-14T14:22:02.611Z,28.02
2019-04-14T14:24:33.836Z,26.93
2019-04-14T14:27:03.833Z,27.82
2019-04-14T14:29:32.322Z,28.33
2019-04-14T14:32:02.581Z,27.20
2019-04-14T14:34:30.894Z,29.52
2019-04-14T14:36:59.557Z,26.37
2019-04-14T14:39:29.806Z,26.82
2019-04-14T14:42:00.241Z,27.70
2019-04-14T14:44:34.710Z,28.00
2019-04-14T14:47:06.102Z,27.50
2019-04-14T14:49:54.276Z,28.70
2019-04-14T14:52:22.960Z,29.82
2019-04-14T14:54:51.785Z,28.80
2019-04-14T14:57:20.241Z,29.50
2019-04-14T14:59:49.061Z,30.23
2019-04-14T15:02:17.541Z,27.73
2019-04-14T15:04:45.908Z,29.57
2019-04-14T15:07:14.782Z,30.37
2019-04-14T15:09:43.452Z,29.87
2019-04-14T15:12:13.213Z,29.40
2019-04-14T15:14:41.940Z,30.30
2019-04-14T15:17:10.657Z,30.08
2019-04-14T15:19:38.965Z,25.88
2019-04-14T15:22:07.642Z,29.37
2019-04-14T15:24:36.212Z,30.65
2019-04-14T15:27:04.977Z,27.15
2019-04-14T15:29:33.736Z,27.42
2019-04-14T15:32:02.353Z,27.80
2019-04-14T15:34:30.964Z,27.62
2019-04-14T15:36:59.645Z,26.42
2019-04-14T15:39:28.324Z,28.80
2019-04-14T15:41:57.110Z,28.38
2019-04-14T15:44:25.713Z,27.90
2019-04-14T15:46:54.406Z,25.92
2019-04-14T15:49:23.605Z,26.57
2019-04-14T15:51:52.204Z,26.68
2019-04-14T15:54:20.897Z,28.45
2019-04-14T15:57:07.498Z,28.60
2019-04-14T15:59:43.424Z,30.48
2019-04-14T16:02:19.393Z,30.92
2019-04-14T16:05:23.814Z,30.55
2019-04-14T16:07:56.625Z,30.70
2019-04-14T16:10:26.705Z,31.37
2019-04-14T16:13:05.890Z,32.03
2019-04-14T16:15:38.890Z,31.48
2019-04-14T16:18:09.170Z,30.65
2019-04-14T16:20:39.452Z,29.63
2019-04-14T16:23:07.773Z,30.25
2019-04-14T16:25:40.861Z,31.00
2019-04-14T16:28:10.912Z,30.50
2019-04-14T16:30:57.449Z,30.62
2019-04-14T16:33:30.469Z,30.60
2019-04-14T16:35:59.577Z,28.07
2019-04-14T16:38:28.124Z,28.62
2019-04-14T16:40:57.625Z,30.43
2019-04-14T16:43:26.583Z,30.27
2019-04-14T16:45:54.993Z,30.05
2019-04-14T16:48:23.310Z,29.52
2019-04-14T16:50:52.097Z,30.20
2019-04-14T16:53:22.273Z,29.77
2019-04-14T16:55:55.359Z,28.90
2019-04-14T16:58:26.554Z,29.82
2019-04-14T17:00:59.561Z,29.50
2019-04-14T17:03:28.069Z,27.82
2019-04-14T17:05:56.438Z,28.07
2019-04-14T17:08:25.133Z,30.88
2019-04-14T17:10:53.836Z,28.98
2019-04-14T17:13:24.285Z,28.95
2019-04-14T17:16:09.704Z,28.90
2019-04-14T17:18:39.980Z,28.65
2019-04-14T17:21:22.099Z,30.23
2019-04-14T17:23:52.146Z,28.62
2019-04-14T17:26:31.477Z,30.05
2019-04-14T17:29:01.768Z,29.02
2019-04-14T17:31:34.845Z,30.23
2019-04-14T17:34:13.980Z,28.98
2019-04-14T17:36:47.218Z,28.12
2019-04-14T17:39:17.360Z,29.72
2019-04-14T17:41:53.693Z,28.98
2019-04-14T17:44:23.739Z,27.70
2019-04-14T17:47:12.177Z,28.67
2019-04-14T17:49:42.567Z,28.10
2019-04-14T17:52:30.949Z,28.42
2019-04-14T17:55:06.826Z,28.98
2019-04-14T17:57:55.303Z,28.40
2019-04-14T18:00:28.475Z,29.23
2019-04-14T18:03:17.401Z,29.23
2019-04-14T18:06:03.914Z,27.70
2019-04-14T18:08:34.197Z,28.73
2019-04-14T18:11:04.476Z,27.77
2019-04-14T18:13:50.817Z,28.42
2019-04-14T18:16:21.076Z,28.30
2019-04-14T18:19:09.235Z,27.02
2019-04-14T18:21:37.708Z,26.37
2019-04-14T18:24:06.025Z,26.97
2019-04-14T18:26:35.204Z,26.62
2019-04-14T18:29:22.019Z,27.87
2019-04-14T18:32:07.708Z,27.15
2019-04-14T18:34:40.571Z,28.12
2019-04-14T18:37:10.806Z,28.25
2019-04-14T18:39:44.313Z,26.73
2019-04-14T18:42:20.187Z,28.23
2019-04-14T18:45:06.856Z,29.55
2019-04-14T18:47:53.430Z,29.85
2019-04-14T18:50:23.353Z,28.05
2019-04-14T18:53:05.904Z,28.50
2019-04-14T18:55:41.865Z,28.27
2019-04-14T18:58:28.760Z,28.05
2019-04-14T19:00:58.714Z,27.05
2019-04-14T19:03:27.368Z,28.47
2019-04-14T19:05:56.022Z,26.70
2019-04-14T19:08:24.789Z,27.65
2019-04-14T19:11:04.033Z,28.02
2019-04-14T19:13:34.111Z,28.25
2019-04-14T19:16:07.397Z,27.35
2019-04-14T19:18:37.592Z,27.37
2019-04-14T19:21:08.733Z,29.10
2019-04-14T19:23:37.417Z,28.70
2019-04-14T19:26:06.640Z,29.50
2019-04-14T19:28:35.185Z,30.32
2019-04-14T19:31:03.924Z,28.70
2019-04-14T19:33:32.572Z,29.80
2019-04-14T19:36:01.262Z,28.62
2019-04-14T19:38:30.005Z,29.40
2019-04-14T19:40:58.637Z,28.02
2019-04-14T19:43:27.314Z,27.48
2019-04-14T19:45:56.702Z,30.05
2019-04-14T19:48:25.503Z,29.67
2019-04-14T19:50:54.304Z,29.00
2019-04-14T19:53:22.948Z,30.30
2019-04-14T19:55:51.637Z,28.85
2019-04-14T19:58:20.245Z,30.48
2019-04-14T20:00:49.085Z,27.98
2019-04-14T20:03:17.606Z,28.02
2019-04-14T20:05:46.448Z,30.32
2019-04-14T20:08:14.751Z,30.75
2019-04-14T20:10:43.282Z,29.98
2019-04-14T20:13:12.001Z,29.37
2019-04-14T20:15:54.216Z,30.25
2019-04-14T20:18:42.471Z,29.77
2019-04-14T20:21:30.920Z,29.42
2019-04-14T20:24:17.329Z,30.35
2019-04-14T20:26:49.945Z,28.75
2019-04-14T20:29:20.302Z,29.57
2019-04-14T20:31:50.686Z,29.15
2019-04-14T20:34:19.248Z,28.40
2019-04-14T20:36:47.569Z,29.82
2019-04-14T20:39:16.789Z,30.10
2019-04-14T20:41:45.322Z,31.12
2019-04-14T20:44:14.173Z,28.75
2019-04-14T20:46:42.781Z,28.10
2019-04-14T20:49:11.550Z,30.15
2019-04-14T20:51:40.050Z,28.57
2019-04-14T20:54:08.753Z,28.23
2019-04-14T20:56:37.408Z,29.80
2019-04-14T20:59:05.785Z,32.48
2019-04-14T21:01:36.012Z,31.87
2019-04-14T21:04:18.308Z,33.33
2019-04-14T21:06:51.427Z,38.20
2019-04-14T21:09:21.497Z,35.68
2019-04-14T21:11:54.437Z,34.97
2019-04-14T21:14:27.341Z,35.48
2019-04-14T21:17:06.759Z,35.33
2019-04-14T21:19:37.058Z,34.00
2019-04-14T21:22:16.343Z,35.73
2019-04-14T21:24:48.373Z,33.55
2019-04-14T21:27:24.509Z,32.60
2019-04-14T21:30:06.524Z,32.25
2019-04-14T21:32:36.581Z,33.20
2019-04-14T21:35:07.248Z,31.70
2019-04-14T21:37:46.664Z,32.33
2019-04-14T21:40:25.677Z,32.08
2019-04-14T21:42:54.212Z,34.67
2019-04-14T21:45:26.033Z,36.00
2019-04-14T21:47:53.228Z,34.70
2019-04-14T21:50:21.922Z,35.17
2019-04-14T21:52:50.690Z,35.50
2019-04-14T21:55:20.504Z,34.25
2019-04-14T21:57:50.840Z,37.38
2019-04-14T22:00:24.427Z,36.50
2019-04-14T22:03:09.844Z,35.55
2019-04-14T22:05:42.621Z,35.55
2019-04-14T22:08:15.594Z,37.93
2019-04-14T22:10:57.602Z,36.60
2019-04-14T22:13:25.997Z,36.20
2019-04-14T22:15:54.646Z,39.40
2019-04-14T22:18:23.340Z,36.28
2019-04-14T22:20:52.070Z,35.55
2019-04-14T22:23:20.800Z,36.50
2019-04-14T22:25:49.375Z,37.38
2019-04-14T22:28:17.762Z,37.08
2019-04-14T22:30:46.337Z,34.78
2019-04-14T22:33:14.659Z,33.23
2019-04-14T22:35:43.307Z,34.25
2019-04-14T22:38:11.643Z,33.05
2019-04-14T22:40:40.669Z,33.13
2019-04-14T22:43:09.373Z,30.80
2019-04-14T22:45:38.051Z,32.13
2019-04-14T22:48:06.819Z,31.37
2019-04-14T22:50:35.521Z,34.90
2019-04-14T22:53:04.108Z,38.70
2019-04-14T22:55:32.573Z,38.15
2019-04-14T22:58:01.069Z,34.70
2019-04-14T23:00:47.245Z,34.75
2019-04-14T23:03:17.289Z,35.28
2019-04-14T23:05:53.812Z,37.38
2019-04-14T23:08:24.085Z,36.65
2019-04-14T23:11:12.196Z,35.17
2019-04-14T23:13:51.276Z,34.45
2019-04-14T23:16:24.025Z,33.63
2019-04-14T23:19:02.645Z,34.50
2019-04-14T23:21:41.655Z,34.27
2019-04-14T23:24:15.453Z,32.33
2019-04-14T23:26:52.410Z,31.50
2019-04-14T23:29:33.613Z,32.67
2019-04-14T23:32:02.250Z,33.30
2019-04-14T23:34:30.933Z,33.25
2019-04-14T23:36:59.597Z,33.63
2019-04-14T23:39:28.690Z,32.08
2019-04-14T23:41:57.376Z,32.90
2019-04-14T23:44:26.056Z,34.20
2019-04-14T23:46:54.746Z,34.38
2019-04-14T23:49:23.434Z,31.93
2019-04-14T23:51:52.116Z,32.67
2019-04-14T23:54:20.804Z,32.28
2019-04-14T23:56:49.502Z,33.00
2019-04-14T23:59:18.168Z,33.73
